Time;durP1;ratioP1;P1;durP2;ratioP2;P2;SDS_P1;SDS_P2;PMS_P1;PMS_P2;Temp;Humidity;BMP_temperature;BMP_pressure;BME280_temperature;BME280_humidity;BME280_pressure;Samples;Min_cycle;Max_cycle;Signal;HPM_P1;HPM_P2
2022/03/13 00:00:18;;;;;;;17.75;11.68;;;7.30;99.90;;;;;;5031887;28;20067;-47
2022/03/13 00:02:47;;;;;;;;;;;7.30;99.90;;;;;;5030902;28;20529;-47
2022/03/13 00:05:16;;;;;;;19.42;12.70;;;7.30;99.90;;;;;;5013278;28;19974;-50
2022/03/13 00:07:47;;;;;;;20.17;12.23;;;7.30;99.90;;;;;;5032453;28;20064;-48
2022/03/13 00:10:20;;;;;;;18.23;12.20;;;7.20;99.90;;;;;;5030384;28;20056;-47
2022/03/13 00:12:48;;;;;;;16.88;11.82;;;7.30;99.90;;;;;;5030640;28;20762;-50
2022/03/13 00:15:15;;;;;;;19.58;12.35;;;7.20;99.90;;;;;;5033135;28;20040;-46
2022/03/13 00:17:41;;;;;;;18.25;12.23;;;;;;;;;;5035678;28;20103;-46
2022/03/13 00:20:10;;;;;;;21.77;13.30;;;7.40;99.90;;;;;;5036777;28;20611;-47
2022/03/13 00:22:36;;;;;;;17.70;12.82;;;7.30;99.90;;;;;;5036516;28;20288;-48
2022/03/13 00:25:06;;;;;;;15.90;11.43;;;7.20;99.90;;;;;;5036203;28;20051;-46
2022/03/13 00:27:34;;;;;;;19.77;12.68;;;;;;;;;;5036577;28;20029;-48
2022/03/13 00:30:01;;;;;;;18.27;12.57;;;7.20;99.90;;;;;;5035123;28;20148;-50
2022/03/13 00:32:28;;;;;;;15.63;11.63;;;;;;;;;;5036298;28;20051;-49
2022/03/13 00:34:54;;;;;;;17.23;13.05;;;;;;;;;;5035302;28;20127;-46
2022/03/13 00:37:21;;;;;;;20.67;12.57;;;7.30;99.90;;;;;;5036606;28;20048;-46
2022/03/13 00:39:49;;;;;;;17.38;12.63;;;;;;;;;;5035620;28;20229;-47
2022/03/13 00:42:15;;;;;;;16.05;12.25;;;7.20;99.90;;;;;;5035377;28;20523;-46
2022/03/13 00:44:43;;;;;;;17.48;11.98;;;7.40;99.90;;;;;;5035017;28;20501;-51
2022/03/13 00:47:09;;;;;;;17.95;12.50;;;7.20;99.90;;;;;;5035088;28;20084;-47
2022/03/13 00:49:35;;;;;;;17.02;12.27;;;;;;;;;;5035610;28;21364;-47
2022/03/13 00:52:02;;;;;;;19.60;12.57;;;7.20;99.90;;;;;;5034343;28;20079;-46
2022/03/13 00:54:28;;;;;;;15.85;12.27;;;;;;;;;;5034180;28;20126;-45
2022/03/13 00:56:54;;;;;;;19.73;13.18;;;;;;;;;;5033643;28;20041;-46
2022/03/13 00:59:21;;;;;;;16.65;12.38;;;7.10;99.90;;;;;;5034587;28;20705;-47
2022/03/13 01:01:47;;;;;;;17.10;12.77;;;;;;;;;;5033205;28;20078;-47
2022/03/13 01:04:14;;;;;;;24.23;13.35;;;;;;;;;;5034340;28;20573;-46
2022/03/13 01:06:41;;;;;;;17.58;12.93;;;;;;;;;;5034264;28;20053;-48
2022/03/13 01:09:07;;;;;;;18.83;13.50;;;;;;;;;;5032906;28;20049;-46
2022/03/13 01:11:34;;;;;;;19.42;13.20;;;7.10;99.90;;;;;;5033440;28;20519;-50
2022/03/13 01:14:01;;;;;;;20.48;12.82;;;;;;;;;;5032733;28;20510;-45
2022/03/13 01:16:29;;;;;;;16.27;12.90;;;7.20;99.90;;;;;;5035093;28;20037;-46
2022/03/13 01:18:58;;;;;;;18.02;13.52;;;7.20;99.90;;;;;;5033621;28;20037;-47
2022/03/13 01:21:24;;;;;;;18.75;13.55;;;6.70;99.90;;;;;;5033919;28;20044;-46
2022/03/13 01:23:59;;;;;;;20.00;13.43;;;7.10;99.90;;;;;;5033334;28;20531;-47
2022/03/13 01:26:25;;;;;;;17.27;12.98;;;;;;;;;;5033182;28;20037;-47
2022/03/13 01:28:57;;;;;;;18.90;12.80;;;7.00;99.90;;;;;;5032871;28;20481;-47
2022/03/13 01:31:28;;;;;;;20.08;13.25;;;7.10;99.90;;;;;;5033131;28;20033;-50
2022/03/13 01:33:55;;;;;;;17.63;13.17;;;7.10;99.90;;;;;;5032363;28;20040;-50
2022/03/13 01:36:21;;;;;;;20.20;13.63;;;;;;;;;;5034349;28;20178;-50
2022/03/13 01:38:52;;;;;;;20.60;13.50;;;7.20;99.90;;;;;;5016224;28;20049;-46
2022/03/13 01:41:17;;;;;;;16.95;13.38;;;7.10;99.90;;;;;;5016543;28;20048;-49
2022/03/13 01:43:44;;;;;;;18.23;13.07;;;;;;;;;;5034167;28;20406;-47
2022/03/13 01:46:11;;;;;;;21.70;13.80;;;7.00;99.90;;;;;;5033855;28;20068;-50
2022/03/13 01:49:03;;;;;;;19.10;13.55;;;6.90;99.90;;;;;;5034634;28;20102;-46
2022/03/13 01:51:33;;;;;;;20.15;13.55;;;7.00;99.90;;;;;;4933351;29;21368;-46
2022/03/13 01:54:02;;;;;;;20.27;13.57;;;7.00;99.90;;;;;;4933728;29;20178;-46
2022/03/13 01:56:30;;;;;;;18.77;12.57;;;7.10;99.90;;;;;;4934327;28;20054;-47
2022/03/13 01:58:56;;;;;;;19.60;13.80;;;7.00;99.90;;;;;;4919077;29;20577;-49
2022/03/13 02:01:24;;;;;;;19.48;14.13;;;7.10;99.90;;;;;;4933789;29;20399;-48
2022/03/13 02:03:50;;;;;;;19.23;12.98;;;;;;;;;;4932634;28;20062;-47
2022/03/13 02:06:17;;;;;;;19.15;14.15;;;7.10;99.90;;;;;;4933657;28;20736;-49
2022/03/13 02:08:44;;;;;;;18.13;14.38;;;7.00;99.90;;;;;;4932204;28;20059;-46
2022/03/13 02:11:14;;;;;;;22.90;14.80;;;7.10;99.90;;;;;;4932431;29;20106;-47
2022/03/13 02:13:40;;;;;;;20.02;13.00;;;7.30;99.90;;;;;;4932798;29;20047;-49
2022/03/13 02:16:07;;;;;;;21.40;14.82;;;7.40;99.90;;;;;;4914478;29;20055;-50
2022/03/13 02:18:34;;;;;;;19.23;13.05;;;7.30;99.90;;;;;;4931866;29;20515;-50
2022/03/13 02:21:00;;;;;;;24.70;13.48;;;;;;;;;;4930857;28;20178;-49
2022/03/13 02:23:28;;;;;;;19.88;13.73;;;7.50;99.90;;;;;;4931034;29;20049;-46
2022/03/13 02:25:56;;;;;;;20.13;13.43;;;7.50;99.90;;;;;;4932416;29;20645;-46
2022/03/13 02:28:24;;;;;;;19.52;12.60;;;7.50;99.90;;;;;;4977381;28;20049;-47
2022/03/13 02:30:51;;;;;;;17.88;13.43;;;7.60;99.90;;;;;;5032088;28;20051;-46
2022/03/13 02:33:21;;;;;;;19.35;13.68;;;7.60;99.90;;;;;;5032155;28;20091;-52
2022/03/13 02:35:52;;;;;;;18.95;13.52;;;7.70;99.90;;;;;;5032398;28;20460;-47
2022/03/13 02:38:18;;;;;;;17.20;12.82;;;7.50;99.90;;;;;;5032052;28;20037;-48
2022/03/13 02:40:47;;;;;;;19.13;13.13;;;7.70;99.90;;;;;;5032506;28;20076;-49
2022/03/13 02:43:13;;;;;;;19.42;13.48;;;7.70;99.90;;;;;;5032029;28;20056;-51
2022/03/13 02:45:39;;;;;;;18.08;13.38;;;7.60;99.90;;;;;;5014257;28;20598;-50
2022/03/13 02:48:07;;;;;;;19.60;14.48;;;7.70;99.90;;;;;;5031442;28;20405;-49
2022/03/13 02:50:34;;;;;;;20.58;13.57;;;7.60;99.90;;;;;;5031512;28;20656;-46
2022/03/13 02:53:00;;;;;;;22.42;14.02;;;7.70;99.90;;;;;;5031211;28;20053;-51
2022/03/13 02:55:26;;;;;;;19.23;13.93;;;7.60;99.90;;;;;;5033512;28;20036;-51
2022/03/13 02:57:53;;;;;;;21.88;14.57;;;7.50;99.90;;;;;;5032730;28;20051;-47
2022/03/13 03:00:21;;;;;;;21.27;14.43;;;7.60;99.90;;;;;;5033648;28;20120;-46
2022/03/13 03:02:48;;;;;;;21.15;14.00;;;;;;;;;;5033705;28;20082;-47
2022/03/13 03:05:16;;;;;;;19.48;13.93;;;7.50;99.90;;;;;;5033954;28;20519;-48
2022/03/13 03:07:42;;;;;;;19.98;14.07;;;7.50;99.90;;;;;;5032961;28;20599;-50
2022/03/13 03:10:15;;;;;;;19.88;13.98;;;7.60;99.90;;;;;;5033107;28;20029;-48
2022/03/13 03:12:41;;;;;;;17.10;13.15;;;7.60;99.90;;;;;;5033892;28;20071;-48
2022/03/13 03:15:07;;;;;;;19.52;14.07;;;7.60;99.90;;;;;;5033254;28;20501;-50
2022/03/13 03:17:32;;;;;;;19.08;13.38;;;7.50;99.90;;;;;;5031831;28;20043;-46
2022/03/13 03:19:58;;;;;;;18.55;13.52;;;7.40;99.90;;;;;;5033566;28;20427;-45
2022/03/13 03:22:25;;;;;;;18.85;14.50;;;7.60;99.90;;;;;;5031297;28;20049;-47
2022/03/13 03:24:51;;;;;;;20.70;13.82;;;7.60;99.90;;;;;;5031120;28;20128;-46
2022/03/13 03:27:17;;;;;;;19.17;14.32;;;7.60;99.90;;;;;;5031743;28;20908;-50
2022/03/13 03:29:44;;;;;;;18.65;14.07;;;7.30;99.90;;;;;;5031867;28;20056;-52
2022/03/13 03:32:10;;;;;;;19.55;14.60;;;7.50;99.90;;;;;;5031482;28;20706;-47
2022/03/13 03:34:36;;;;;;;20.63;14.18;;;7.70;99.90;;;;;;5031190;28;20036;-51
2022/03/13 03:37:03;;;;;;;18.00;13.82;;;7.50;99.90;;;;;;5031222;28;20358;-50
2022/03/13 03:39:31;;;;;;;17.30;13.23;;;7.50;99.90;;;;;;5031733;28;20390;-47
2022/03/13 03:41:56;;;;;;;22.45;13.65;;;7.40;99.90;;;;;;5032678;28;20136;-49
2022/03/13 03:44:23;;;;;;;19.55;13.70;;;7.40;99.90;;;;;;5031482;28;20044;-47
2022/03/13 03:46:51;;;;;;;19.10;13.85;;;7.30;99.90;;;;;;5031063;28;20045;-48
2022/03/13 03:49:17;;;;;;;18.88;13.65;;;7.30;99.90;;;;;;5031560;28;20098;-47
2022/03/13 03:51:43;;;;;;;20.83;14.95;;;7.20;99.90;;;;;;5036101;28;20049;-46
2022/03/13 03:54:11;;;;;;;18.83;14.18;;;7.20;99.90;;;;;;5034686;28;20057;-51
2022/03/13 03:56:37;;;;;;;22.08;15.15;;;7.10;99.90;;;;;;5035240;28;20120;-51
2022/03/13 03:59:03;;;;;;;19.77;15.07;;;7.10;99.90;;;;;;5033794;28;20485;-49
2022/03/13 04:01:41;;;;;;;19.75;14.48;;;7.10;99.90;;;;;;5035663;28;21524;-50
2022/03/13 04:04:08;;;;;;;18.00;14.07;;;6.90;99.90;;;;;;5034124;28;20045;-50
2022/03/13 04:06:37;;;;;;;17.52;13.32;;;7.10;99.90;;;;;;5017921;28;20136;-48
2022/03/13 04:09:04;;;;;;;20.02;14.30;;;6.70;99.90;;;;;;5034422;28;20041;-50
2022/03/13 04:11:30;;;;;;;20.58;14.77;;;;;;;;;;5036190;28;20481;-48
2022/03/13 04:13:57;;;;;;;19.95;13.75;;;;;;;;;;5036153;28;20098;-49
2022/03/13 04:16:23;;;;;;;20.33;14.75;;;;;;;;;;5035303;28;20489;-47
2022/03/13 04:18:49;;;;;;;18.63;14.38;;;;;;;;;;5035648;28;20123;-46
2022/03/13 04:21:15;;;;;;;21.20;14.40;;;6.60;99.90;;;;;;5017421;28;20048;-45
2022/03/13 04:23:40;;;;;;;22.58;14.60;;;6.60;99.90;;;;;;5035336;28;20041;-46
2022/03/13 04:26:06;;;;;;;20.80;14.85;;;6.50;99.90;;;;;;5035381;28;20083;-45
2022/03/13 04:28:34;;;;;;;18.92;14.15;;;6.60;99.90;;;;;;5036133;28;20041;-48
2022/03/13 04:31:00;;;;;;;19.17;14.23;;;6.40;99.90;;;;;;5035844;28;20033;-49
2022/03/13 04:33:28;;;;;;;23.77;16.52;;;6.30;99.90;;;;;;5036256;28;20041;-46
2022/03/13 04:35:57;;;;;;;20.58;14.40;;;6.30;99.90;;;;;;5036600;28;20238;-49
2022/03/13 04:38:26;;;;;;;22.25;15.52;;;6.40;99.90;;;;;;5035695;28;20162;-49
2022/03/13 04:40:53;;;;;;;22.05;15.48;;;;;;;;;;5035426;28;20379;-45
2022/03/13 04:43:19;;;;;;;20.65;14.90;;;;;;;;;;5034810;28;20048;-47
2022/03/13 04:45:48;;;;;;;22.08;14.07;;;6.30;99.90;;;;;;5034182;28;20037;-50
2022/03/13 04:48:14;;;;;;;20.50;14.25;;;;;;;;;;5034410;28;20080;-44
2022/03/13 04:50:40;;;;;;;21.92;14.90;;;;;;;;;;5035010;28;20094;-47
2022/03/13 04:53:09;;;;;;;20.02;14.48;;;6.20;99.90;;;;;;5032108;28;20738;-47
2022/03/13 04:55:36;;;;;;;21.77;14.10;;;;;;;;;;5033514;28;20055;-49
2022/03/13 04:58:02;;;;;;;20.15;14.75;;;;;;;;;;5033233;28;20076;-48
2022/03/13 05:00:28;;;;;;;20.48;15.07;;;;;;;;;;5034261;28;20076;-48
2022/03/13 05:02:57;;;;;;;23.63;14.52;;;6.30;99.90;;;;;;5015302;28;20049;-50
2022/03/13 05:05:23;;;;;;;21.08;14.57;;;;;;;;;;5034053;28;20052;-48
2022/03/13 05:07:52;;;;;;;20.55;14.68;;;6.20;99.90;;;;;;5034380;28;20045;-48
2022/03/13 05:10:19;;;;;;;21.70;14.88;;;;;;;;;;5032626;28;20121;-49
2022/03/13 05:12:47;;;;;;;19.63;14.70;;;6.40;99.90;;;;;;5033337;28;20870;-45
2022/03/13 05:15:13;;;;;;;20.73;14.70;;;;;;;;;;5014707;28;20076;-50
2022/03/13 05:17:39;;;;;;;18.58;14.55;;;6.30;99.90;;;;;;5034041;28;21294;-48
2022/03/13 05:20:08;;;;;;;20.67;16.20;;;6.20;99.90;;;;;;5033894;28;20135;-50
2022/03/13 05:22:34;;;;;;;22.70;14.63;;;;;;;;;;5033196;28;20449;-45
2022/03/13 05:25:00;;;;;;;21.92;15.05;;;;;;;;;;5033806;28;20098;-48
2022/03/13 05:27:26;;;;;;;21.40;15.48;;;;;;;;;;5033759;28;20128;-47
2022/03/13 05:29:52;;;;;;;20.60;15.30;;;;;;;;;;5033338;28;20040;-49
2022/03/13 05:32:18;;;;;;;19.35;14.35;;;;;;;;;;5033102;28;20044;-47
2022/03/13 05:34:46;;;;;;;21.00;14.95;;;;;;;;;;5034730;28;20529;-48
2022/03/13 05:37:14;;;;;;;21.23;14.55;;;6.10;99.90;;;;;;5035580;28;20045;-50
2022/03/13 05:39:40;;;;;;;20.30;15.60;;;;;;;;;;5034654;28;20068;-51
2022/03/13 05:42:06;;;;;;;22.58;16.15;;;;;;;;;;5033840;28;20037;-48
2022/03/13 05:44:33;;;;;;;19.98;14.65;;;;;;;;;;5034267;28;20375;-48
2022/03/13 05:47:01;;;;;;;22.65;15.38;;;6.10;99.90;;;;;;5034562;28;20119;-50
2022/03/13 05:49:27;;;;;;;20.63;15.48;;;;;;;;;;5015221;28;20043;-50
2022/03/13 05:51:54;;;;;;;21.50;14.90;;;;;;;;;;5033177;28;20080;-55
2022/03/13 05:54:21;;;;;;;21.40;15.95;;;6.10;99.90;;;;;;5034163;28;20056;-47
2022/03/13 05:56:47;;;;;;;21.00;15.38;;;6.10;99.90;;;;;;5033626;28;20055;-48
2022/03/13 05:59:14;;;;;;;24.10;16.67;;;;;;;;;;5033117;28;20064;-48
2022/03/13 06:01:42;;;;;;;19.73;14.45;;;6.10;99.90;;;;;;5034644;28;20079;-46
2022/03/13 06:04:09;;;;;;;20.73;14.82;;;;;;;;;;5031601;28;20122;-49
2022/03/13 06:06:35;;;;;;;18.67;14.88;;;;;;;;;;5031773;28;20033;-49
2022/03/13 06:09:01;;;;;;;20.85;15.75;;;;;;;;;;5032267;28;20516;-51
2022/03/13 06:11:27;;;;;;;22.38;14.88;;;;;;;;;;5032186;28;20681;-50
2022/03/13 06:13:53;;;;;;;20.30;15.00;;;;;;;;;;5033149;28;20045;-48
2022/03/13 06:16:24;;;;;;;21.30;14.63;;;6.20;99.90;;;;;;5031647;28;20105;-49
2022/03/13 06:18:50;;;;;;;21.42;14.75;;;;;;;;;;5032194;28;20131;-50
2022/03/13 06:21:16;;;;;;;19.42;15.05;;;;;;;;;;5031324;28;20051;-53
2022/03/13 06:23:42;;;;;;;19.88;15.02;;;;;;;;;;5032978;28;20048;-51
2022/03/13 06:26:09;;;;;;;19.90;14.30;;;6.20;99.90;;;;;;5032320;28;20040;-50
2022/03/13 06:28:35;;;;;;;24.00;14.93;;;;;;;;;;5013826;28;21073;-51
2022/03/13 06:31:04;;;;;;;20.40;14.80;;;6.50;99.90;;;;;;5031031;28;20072;-48
2022/03/13 06:33:30;;;;;;;22.30;14.55;;;;;;;;;;5032004;28;20041;-48
2022/03/13 06:35:56;;;;;;;20.50;14.32;;;6.50;99.90;;;;;;5033034;28;20055;-45
2022/03/13 06:38:22;;;;;;;20.23;14.38;;;;;;;;;;5032868;28;20041;-47
2022/03/13 06:40:48;;;;;;;19.08;13.88;;;;;;;;;;5031145;28;20055;-51
2022/03/13 06:43:16;;;;;;;19.58;14.40;;;6.20;99.90;;;;;;5031638;28;20126;-46
2022/03/13 06:45:42;;;;;;;17.52;13.05;;;;;;;;;;5032138;28;21468;-47
2022/03/13 06:48:09;;;;;;;18.73;14.02;;;;;;;;;;5032104;28;20048;-49
2022/03/13 06:50:35;;;;;;;17.85;13.65;;;;;;;;;;5031809;28;20132;-51
2022/03/13 06:53:02;;;;;;;19.52;14.10;;;6.10;99.90;;;;;;5030350;28;20049;-49
2022/03/13 06:55:28;;;;;;;18.38;13.85;;;;;;;;;;5032724;28;20052;-47
2022/03/13 06:57:55;;;;;;;20.83;13.75;;;;;;;;;;5034038;28;20140;-48
2022/03/13 07:00:21;;;;;;;17.52;12.82;;;;;;;;;;5032223;28;20394;-47
2022/03/13 07:02:47;;;;;;;19.25;14.15;;;;;;;;;;5032990;28;20559;-51
2022/03/13 07:05:13;;;;;;;22.45;14.00;;;;;;;;;;5030385;28;20041;-47
2022/03/13 07:07:39;;;;;;;20.52;13.48;;;;;;;;;;5033863;28;20060;-46
2022/03/13 07:10:11;;;;;;;17.63;12.93;;;6.40;99.90;;;;;;5031372;28;20045;-47
2022/03/13 07:12:37;;;;;;;18.45;13.05;;;;;;;;;;5031514;28;20420;-45
2022/03/13 07:15:10;;;;;;;19.52;13.13;;;6.70;99.90;;;;;;5030748;28;20091;-47
2022/03/13 07:17:36;;;;;;;17.08;12.63;;;;;;;;;;5033016;28;20041;-47
2022/03/13 07:20:03;;;;;;;17.23;12.20;;;6.70;99.90;;;;;;5013938;28;20048;-49
2022/03/13 07:22:32;;;;;;;19.70;13.00;;;7.70;99.90;;;;;;5032390;28;20947;-46
2022/03/13 07:24:59;;;;;;;15.50;11.63;;;;;;;;;;5030979;28;20041;-47
2022/03/13 07:27:25;;;;;;;15.02;11.73;;;;;;;;;;5030642;28;20047;-49
2022/03/13 07:29:51;;;;;;;21.00;11.68;;;;;;;;;;5031232;28;20138;-48
2022/03/13 07:32:17;;;;;;;16.33;12.27;;;7.20;99.90;;;;;;5031285;28;20049;-48
2022/03/13 07:34:43;;;;;;;15.75;11.75;;;;;;;;;;5032176;28;20277;-50
2022/03/13 07:37:12;;;;;;;15.60;11.70;;;7.60;99.90;;;;;;5030213;28;20076;-49
2022/03/13 07:39:41;;;;;;;17.42;11.32;;;7.60;99.90;;;;;;5031935;28;20782;-46
2022/03/13 07:42:07;;;;;;;18.35;12.55;;;7.50;99.90;;;;;;5030716;28;20060;-50
2022/03/13 07:44:33;;;;;;;16.00;11.60;;;7.60;99.90;;;;;;5030677;28;20128;-49
2022/03/13 07:47:01;;;;;;;16.42;12.00;;;7.50;99.90;;;;;;5030473;28;20040;-46
2022/03/13 07:49:26;;;;;;;15.05;11.63;;;7.50;99.90;;;;;;5030808;28;20103;-49
2022/03/13 07:51:52;;;;;;;16.08;11.07;;;7.50;99.90;;;;;;5031009;28;20045;-50
2022/03/13 07:54:19;;;;;;;17.17;11.55;;;7.60;99.90;;;;;;5030277;28;20475;-47
2022/03/13 07:56:45;;;;;;;15.95;11.52;;;7.60;99.90;;;;;;5032100;28;20319;-50
2022/03/13 07:59:11;;;;;;;17.85;12.25;;;7.70;99.90;;;;;;5030933;28;20037;-51
2022/03/13 08:01:37;;;;;;;17.38;11.60;;;;;;;;;;5029694;28;20508;-51
2022/03/13 08:04:05;;;;;;;15.43;11.10;;;7.70;99.90;;;;;;5030460;28;20041;-50
2022/03/13 08:06:35;;;;;;;16.55;11.77;;;7.90;99.90;;;;;;5030355;28;20424;-47
2022/03/13 08:09:05;;;;;;;17.27;11.95;;;7.80;99.90;;;;;;5013334;28;20139;-51
2022/03/13 08:11:34;;;;;;;16.30;11.02;;;7.90;99.90;;;;;;5031071;28;20068;-48
2022/03/13 08:14:00;;;;;;;16.02;11.45;;;;;;;;;;5029140;28;20072;-49
2022/03/13 08:16:27;;;;;;;21.55;14.95;;;7.90;99.90;;;;;;5029529;28;20625;-51
2022/03/13 08:18:53;;;;;;;28.52;18.70;;;8.00;99.90;;;;;;5008808;28;20473;-48
2022/03/13 08:21:19;;;;;;;29.75;18.70;;;8.00;99.90;;;;;;5030349;28;20045;-48
2022/03/13 08:23:46;;;;;;;24.80;16.40;;;8.00;99.90;;;;;;5031662;28;20134;-50
2022/03/13 08:26:12;;;;;;;17.55;12.05;;;8.00;99.90;;;;;;5029725;28;20048;-46
2022/03/13 08:28:41;;;;;;;17.98;12.05;;;8.10;99.90;;;;;;5030605;28;20045;-49
2022/03/13 08:31:07;;;;;;;16.45;11.00;;;8.10;99.90;;;;;;5030074;28;20037;-51
2022/03/13 08:33:34;;;;;;;18.92;12.13;;;8.30;99.90;;;;;;5031001;28;20732;-49
2022/03/13 08:35:59;;;;;;;15.70;10.85;;;8.40;99.90;;;;;;5031356;28;20490;-50
2022/03/13 08:38:25;;;;;;;15.15;10.98;;;8.40;99.90;;;;;;5033247;28;20140;-51
2022/03/13 08:40:51;;;;;;;17.00;11.48;;;8.40;99.90;;;;;;5034609;28;20592;-51
2022/03/13 08:43:17;;;;;;;21.55;12.20;;;8.70;99.90;;;;;;5035146;28;20502;-50
2022/03/13 08:45:42;;;;;;;16.58;11.30;;;9.00;99.90;;;;;;5033879;28;20052;-50
2022/03/13 08:48:08;;;;;;;15.32;11.38;;;8.90;99.90;;;;;;5033758;28;20039;-51
2022/03/13 08:50:34;;;;;;;15.75;11.13;;;9.70;99.90;;;;;;5033368;28;20053;-49
2022/03/13 08:53:01;;;;;;;14.50;10.93;;;9.80;99.90;;;;;;5034031;28;20049;-50
2022/03/13 08:55:28;;;;;;;14.82;10.20;;;11.00;99.90;;;;;;5034262;28;20547;-50
2022/03/13 08:57:54;;;;;;;15.07;10.68;;;10.70;99.90;;;;;;5015167;28;20040;-51
2022/03/13 09:00:21;;;;;;;15.02;10.60;;;13.20;99.90;;;;;;5032928;28;20402;-51
2022/03/13 09:02:47;;;;;;;15.48;10.65;;;11.50;99.90;;;;;;5016062;28;20068;-49
2022/03/13 09:05:13;;;;;;;13.73;10.07;;;11.90;99.90;;;;;;5032811;28;20173;-52
2022/03/13 09:07:40;;;;;;;13.60;10.20;;;12.60;99.90;;;;;;5032181;28;20885;-50
2022/03/13 09:10:07;;;;;;;13.95;10.20;;;13.20;99.90;;;;;;5032962;28;20040;-50
2022/03/13 09:12:34;;;;;;;14.80;10.48;;;12.50;99.90;;;;;;5033117;28;20858;-51
2022/03/13 09:15:00;;;;;;;16.77;10.73;;;13.50;99.90;;;;;;5033565;28;20064;-49
2022/03/13 09:17:26;;;;;;;15.32;10.35;;;12.80;99.90;;;;;;5033945;28;20079;-49
2022/03/13 09:19:53;;;;;;;14.40;10.88;;;12.70;99.90;;;;;;5033285;28;20075;-52
2022/03/13 09:22:22;;;;;;;15.02;10.85;;;13.50;99.90;;;;;;5030238;28;20367;-50
2022/03/13 09:24:49;;;;;;;15.95;10.63;;;13.50;99.90;;;;;;5031564;28;20048;-47
2022/03/13 09:27:14;;;;;;;14.35;10.63;;;14.00;99.90;;;;;;5032200;28;20484;-49
2022/03/13 09:29:40;;;;;;;13.68;10.13;;;13.10;99.90;;;;;;5014096;28;20052;-48
2022/03/13 09:32:07;;;;;;;14.48;10.57;;;12.90;99.90;;;;;;5031209;28;20146;-49
2022/03/13 09:34:34;;;;;;;17.58;10.80;;;13.10;99.90;;;;;;5033185;28;20090;-50
2022/03/13 09:37:02;;;;;;;14.43;10.55;;;14.90;99.90;;;;;;5033146;28;20041;-50
2022/03/13 09:39:29;;;;;;;14.52;10.35;;;13.90;99.90;;;;;;5032595;28;20061;-50
2022/03/13 09:41:56;;;;;;;13.70;10.43;;;14.80;99.90;;;;;;5031902;28;20040;-50
2022/03/13 09:44:22;;;;;;;15.60;10.70;;;17.10;99.90;;;;;;5032138;28;21283;-50
2022/03/13 09:46:48;;;;;;;32.95;23.10;;;15.30;99.90;;;;;;5032759;28;20120;-50
2022/03/13 09:49:16;;;;;;;65.65;31.15;;;15.40;99.90;;;;;;5031730;28;20055;-48
2022/03/13 09:51:42;;;;;;;24.23;21.60;;;16.10;99.60;;;;;;5032087;28;20767;-50
2022/03/13 09:54:08;;;;;;;31.38;23.20;;;15.40;99.50;;;;;;5034621;28;20037;-51
2022/03/13 09:56:35;;;;;;;51.22;34.20;;;15.40;99.90;;;;;;5014742;28;20037;-52
2022/03/13 09:59:02;;;;;;;41.75;33.67;;;15.30;99.10;;;;;;5030293;28;20037;-50
2022/03/13 10:01:28;;;;;;;349.88;177.73;;;17.00;99.60;;;;;;5031827;28;20321;-50
2022/03/13 10:03:54;;;;;;;379.77;259.30;;;16.80;99.50;;;;;;5033873;28;20831;-49
2022/03/13 10:06:25;;;;;;;1999.90;999.90;;;14.60;99.30;;;;;;5034044;28;20036;-46
2022/03/13 10:08:50;;;;;;;1555.60;978.25;;;14.90;99.20;;;;;;5035002;28;20561;-46
2022/03/13 10:11:29;;;;;;;1326.03;880.08;;;14.00;98.90;;;;;;5032900;28;20048;-46
2022/03/13 10:14:05;;;;;;;908.53;814.47;;;13.80;98.80;;;;;;5031330;28;20064;-46
2022/03/13 10:16:37;;;;;;;1330.80;908.72;;;13.80;99.60;;;;;;5030571;28;20688;-49
2022/03/13 10:19:13;;;;;;;1351.35;893.58;;;14.10;99.90;;;;;;5031841;28;20045;-48
2022/03/13 10:21:58;;;;;;;1242.60;945.53;;;14.60;99.90;;;;;;5031249;28;20052;-47
2022/03/13 10:24:24;;;;;;;1638.40;986.47;;;14.40;99.90;;;;;;5031593;28;20148;-48
2022/03/13 10:27:08;;;;;;;947.88;856.65;;;14.00;99.30;;;;;;5030275;28;21231;-50
2022/03/13 10:29:34;;;;;;;1446.25;989.15;;;14.00;99.00;;;;;;5032746;28;20530;-46
2022/03/13 10:32:02;;;;;;;1151.53;895.08;;;13.90;99.20;;;;;;5032186;28;20323;-48
2022/03/13 10:34:28;;;;;;;1304.25;922.75;;;14.10;99.10;;;;;;5031812;28;20041;-49
2022/03/13 10:36:54;;;;;;;870.05;755.88;;;14.10;99.10;;;;;;5032111;28;21777;-50
2022/03/13 10:39:23;;;;;;;1028.25;882.97;;;14.80;99.50;;;;;;5033321;28;20037;-48
2022/03/13 10:41:56;;;;;;;827.70;745.05;;;15.90;98.60;;;;;;5033137;28;20045;-47
2022/03/13 10:44:25;;;;;;;946.15;844.65;;;15.30;99.60;;;;;;5032447;28;20048;-51
2022/03/13 10:46:56;;;;;;;671.70;616.63;;;15.40;99.10;;;;;;5014103;28;20571;-47
2022/03/13 10:49:52;;;;;;;943.40;828.22;;;14.50;98.90;;;;;;5031162;28;20064;-49
2022/03/13 10:52:26;;;;;;;825.38;744.55;;;14.60;98.30;;;;;;5031089;28;20739;-49
2022/03/13 10:54:54;;;;;;;808.50;729.90;;;15.20;99.70;;;;;;5031455;28;20041;-48
2022/03/13 10:57:19;;;;;;;779.63;702.72;;;14.80;98.90;;;;;;5031739;28;20049;-46
2022/03/13 11:00:04;;;;;;;770.47;703.17;;;15.60;99.30;;;;;;5030394;28;20773;-48
2022/03/13 11:02:31;;;;;;;851.35;765.80;;;15.00;98.60;;;;;;5030283;28;20037;-50
2022/03/13 11:04:57;;;;;;;819.10;742.28;;;15.20;98.30;;;;;;5032219;28;20047;-48
2022/03/13 11:07:26;;;;;;;1141.15;909.63;;;15.20;98.40;;;;;;5031614;28;20037;-48
2022/03/13 11:09:55;;;;;;;1223.93;904.15;;;15.30;98.40;;;;;;5032323;28;20052;-48
2022/03/13 11:12:21;;;;;;;851.17;765.75;;;15.60;98.30;;;;;;5033447;28;20501;-51
2022/03/13 11:14:52;;;;;;;858.67;779.40;;;15.50;98.10;;;;;;5031398;28;20194;-50
2022/03/13 11:17:22;;;;;;;1292.67;952.67;;;16.40;98.40;;;;;;5031971;28;20041;-49
2022/03/13 11:19:58;;;;;;;939.15;853.90;;;16.50;97.80;;;;;;5032831;28;20421;-48
2022/03/13 11:22:28;;;;;;;1158.30;896.78;;;15.50;98.00;;;;;;5031188;28;20448;-48
2022/03/13 11:25:00;;;;;;;1440.63;939.97;;;15.80;98.00;;;;;;5032085;28;20037;-50
2022/03/13 11:27:27;;;;;;;849.50;764.25;;;16.00;97.60;;;;;;5031869;28;20033;-49
2022/03/13 11:29:54;;;;;;;1108.13;848.05;;;17.50;97.70;;;;;;5030960;28;20041;-52
2022/03/13 11:32:43;;;;;;;1091.85;647.42;;;15.90;96.90;;;;;;5032135;28;20037;-47
2022/03/13 11:35:14;;;;;;;827.55;744.30;;;16.00;97.20;;;;;;5030393;28;20162;-49
2022/03/13 11:37:41;;;;;;;721.58;636.95;;;16.10;97.60;;;;;;5031110;28;20045;-46
2022/03/13 11:40:09;;;;;;;1165.32;748.33;;;16.00;97.20;;;;;;5029342;28;20040;-46
2022/03/13 11:42:48;;;;;;;936.70;761.28;;;16.20;97.60;;;;;;5030412;28;20044;-47
2022/03/13 11:45:30;;;;;;;1153.03;820.15;;;16.30;96.40;;;;;;5012189;28;20045;-47
2022/03/13 11:48:21;;;;;;;322.65;289.50;;;17.10;96.50;;;;;;5031977;28;20063;-46
2022/03/13 11:50:50;;;;;;;581.00;347.70;;;16.80;96.40;;;;;;5031534;28;20049;-47
2022/03/13 11:53:23;;;;;;;15.70;10.65;;;16.30;96.10;;;;;;5030015;28;20578;-46
2022/03/13 11:56:00;;;;;;;486.80;439.70;;;17.40;97.30;;;;;;5029842;28;20045;-46
2022/03/13 11:58:51;;;;;;;120.18;88.88;;;16.20;96.50;;;;;;5030303;28;20134;-45
2022/03/13 12:01:31;;;;;;;172.90;125.63;;;16.20;96.40;;;;;;5029448;28;20036;-50
2022/03/13 12:04:23;;;;;;;14.02;10.68;;;17.00;97.20;;;;;;5030949;28;21120;-47
2022/03/13 12:06:56;;;;;;;454.67;277.02;;;16.40;96.70;;;;;;4969215;28;20054;-46
2022/03/13 12:09:42;;;;;;;15.10;9.05;;;18.40;96.70;;;;;;4969555;28;20920;-47
2022/03/13 12:12:20;;;;;;;16.42;12.15;;;16.50;96.20;;;;;;4970632;28;20058;-47
2022/03/13 12:14:57;;;;;;;15.13;9.23;;;16.30;95.50;;;;;;4972509;28;20082;-46
2022/03/13 12:17:27;;;;;;;15.80;9.70;;;16.20;95.80;;;;;;4972736;28;20458;-48
2022/03/13 12:19:54;;;;;;;14.68;10.15;;;18.40;96.60;;;;;;4973327;28;20038;-51
2022/03/13 12:22:24;;;;;;;18.92;10.30;;;16.00;96.70;;;;;;4969446;28;20064;-49
2022/03/13 12:24:55;;;;;;;15.90;11.05;;;16.20;96.50;;;;;;4970978;28;20093;-50
2022/03/13 12:27:22;;;;;;;16.05;9.82;;;16.10;96.50;;;;;;4971013;28;20042;-45
2022/03/13 12:29:55;;;;;;;20.00;12.40;;;16.10;96.40;;;;;;4956852;28;20046;-47
2022/03/13 12:32:32;;;;;;;16.85;10.85;;;16.30;95.90;;;;;;4972785;28;20066;-51
2022/03/13 12:34:59;;;;;;;18.20;11.18;;;16.10;96.00;;;;;;4972994;28;20134;-45
2022/03/13 12:37:26;;;;;;;16.38;11.00;;;16.20;96.50;;;;;;4956457;28;20050;-49
2022/03/13 12:39:55;;;;;;;14.70;10.88;;;18.20;96.90;;;;;;4973625;28;20057;-51
2022/03/13 12:42:23;;;;;;;17.55;11.25;;;17.00;96.40;;;;;;4972058;28;20137;-47
2022/03/13 12:45:09;;;;;;;15.80;11.10;;;16.00;96.30;;;;;;5015173;28;20099;-51
2022/03/13 12:47:40;;;;;;;16.85;11.32;;;16.10;96.50;;;;;;5034545;28;20152;-50
2022/03/13 12:50:10;;;;;;;17.40;11.25;;;16.40;97.10;;;;;;5015434;28;20188;-52
2022/03/13 12:52:36;;;;;;;14.07;10.82;;;16.00;96.70;;;;;;5032622;28;20041;-50
2022/03/13 12:55:04;;;;;;;16.67;10.60;;;16.20;96.20;;;;;;5031327;28;20406;-51
2022/03/13 12:57:30;;;;;;;16.60;11.50;;;15.80;96.30;;;;;;5032027;28;20049;-51